sensor_id;sensor_type;location;lat;lon;timestamp;pressure;altitude;pressure_sealevel;temperature;humidity
37066;BME280;22981;43.080;25.550;2023-06-24T00:01:43;99450.76;;;24.09;60.11
37066;BME280;22981;43.080;25.550;2023-06-24T00:04:11;99452.69;;;24.08;60.15
37066;BME280;22981;43.080;25.550;2023-06-24T00:06:40;99449.71;;;24.07;59.91
37066;BME280;22981;43.080;25.550;2023-06-24T00:09:08;99449.95;;;24.08;59.74
37066;BME280;22981;43.080;25.550;2023-06-24T00:11:36;99450.44;;;24.10;59.52
37066;BME280;22981;43.080;25.550;2023-06-24T00:14:03;99437.65;;;24.08;59.29
37066;BME280;22981;43.080;25.550;2023-06-24T00:16:33;99439.58;;;24.08;59.15
37066;BME280;22981;43.080;25.550;2023-06-24T00:19:02;99443.48;;;24.04;59.27
37066;BME280;22981;43.080;25.550;2023-06-24T00:21:30;99439.63;;;24.05;59.05
37066;BME280;22981;43.080;25.550;2023-06-24T00:23:58;99428.36;;;24.07;58.74
37066;BME280;22981;43.080;25.550;2023-06-24T00:26:27;99421.00;;;24.07;58.26
37066;BME280;22981;43.080;25.550;2023-06-24T00:28:55;99422.23;;;24.12;57.85
37066;BME280;22981;43.080;25.550;2023-06-24T00:31:22;99425.16;;;24.16;57.43
37066;BME280;22981;43.080;25.550;2023-06-24T00:33:50;99426.69;;;24.19;57.06
37066;BME280;22981;43.080;25.550;2023-06-24T00:36:18;99427.39;;;24.25;56.85
37066;BME280;22981;43.080;25.550;2023-06-24T00:38:46;99428.95;;;24.29;56.51
37066;BME280;22981;43.080;25.550;2023-06-24T00:41:16;99420.98;;;24.30;56.40
37066;BME280;22981;43.080;25.550;2023-06-24T00:43:47;99420.19;;;24.29;56.34
37066;BME280;22981;43.080;25.550;2023-06-24T00:46:15;99421.69;;;24.24;56.47
37066;BME280;22981;43.080;25.550;2023-06-24T00:48:45;99422.59;;;24.19;56.64
37066;BME280;22981;43.080;25.550;2023-06-24T00:51:12;99429.13;;;24.10;57.33
37066;BME280;22981;43.080;25.550;2023-06-24T00:53:40;99426.12;;;23.86;58.40
37066;BME280;22981;43.080;25.550;2023-06-24T00:56:07;99419.51;;;23.65;59.60
37066;BME280;22981;43.080;25.550;2023-06-24T00:58:36;99418.03;;;23.56;60.16
37066;BME280;22981;43.080;25.550;2023-06-24T01:01:07;99416.66;;;23.42;60.76
37066;BME280;22981;43.080;25.550;2023-06-24T01:03:36;99413.50;;;23.24;61.49
37066;BME280;22981;43.080;25.550;2023-06-24T01:06:03;99409.87;;;23.15;61.89
37066;BME280;22981;43.080;25.550;2023-06-24T01:08:31;99409.10;;;23.12;62.13
37066;BME280;22981;43.080;25.550;2023-06-24T01:10:59;99416.63;;;23.04;62.48
37066;BME280;22981;43.080;25.550;2023-06-24T01:13:26;99419.57;;;22.93;63.04
37066;BME280;22981;43.080;25.550;2023-06-24T01:15:54;99420.09;;;22.79;63.72
37066;BME280;22981;43.080;25.550;2023-06-24T01:18:24;99420.27;;;22.69;64.16
37066;BME280;22981;43.080;25.550;2023-06-24T01:26:48;99423.03;;;22.36;65.31
37066;BME280;22981;43.080;25.550;2023-06-24T01:32:19;99418.85;;;22.06;66.23
37066;BME280;22981;43.080;25.550;2023-06-24T01:35:06;99416.95;;;22.04;66.43
37066;BME280;22981;43.080;25.550;2023-06-24T01:37:35;99413.54;;;21.96;66.68
37066;BME280;22981;43.080;25.550;2023-06-24T01:40:11;99415.31;;;21.87;67.13
37066;BME280;22981;43.080;25.550;2023-06-24T01:42:41;99412.20;;;21.77;67.47
37066;BME280;22981;43.080;25.550;2023-06-24T01:45:17;99417.42;;;21.73;67.59
37066;BME280;22981;43.080;25.550;2023-06-24T01:47:43;99410.96;;;21.67;67.85
37066;BME280;22981;43.080;25.550;2023-06-24T01:50:12;99412.38;;;21.64;68.01
37066;BME280;22981;43.080;25.550;2023-06-24T01:52:43;99409.17;;;21.60;68.17
37066;BME280;22981;43.080;25.550;2023-06-24T01:55:15;99409.67;;;21.62;68.30
37066;BME280;22981;43.080;25.550;2023-06-24T01:57:42;99405.64;;;21.59;68.46
37066;BME280;22981;43.080;25.550;2023-06-24T02:00:11;99403.52;;;21.54;68.65
37066;BME280;22981;43.080;25.550;2023-06-24T02:02:40;99410.45;;;21.46;68.82
37066;BME280;22981;43.080;25.550;2023-06-24T02:05:09;99406.23;;;21.35;69.17
37066;BME280;22981;43.080;25.550;2023-06-24T02:07:38;99402.72;;;21.32;69.44
37066;BME280;22981;43.080;25.550;2023-06-24T02:10:08;99401.08;;;21.31;69.55
37066;BME280;22981;43.080;25.550;2023-06-24T02:12:36;99405.55;;;21.21;69.69
37066;BME280;22981;43.080;25.550;2023-06-24T02:15:07;99404.52;;;21.17;69.91
37066;BME280;22981;43.080;25.550;2023-06-24T02:17:36;99407.47;;;21.21;69.86
37066;BME280;22981;43.080;25.550;2023-06-24T02:20:06;99414.52;;;21.24;69.88
37066;BME280;22981;43.080;25.550;2023-06-24T02:25:06;99417.88;;;21.16;70.03
37066;BME280;22981;43.080;25.550;2023-06-24T02:27:35;99428.55;;;21.10;70.23
37066;BME280;22981;43.080;25.550;2023-06-24T02:30:05;99431.27;;;21.10;70.30
37066;BME280;22981;43.080;25.550;2023-06-24T02:32:34;99431.82;;;21.10;70.27
37066;BME280;22981;43.080;25.550;2023-06-24T02:35:03;99440.86;;;21.05;70.35
37066;BME280;22981;43.080;25.550;2023-06-24T02:37:31;99448.77;;;21.04;70.49
37066;BME280;22981;43.080;25.550;2023-06-24T02:39:59;99456.08;;;21.06;70.49
37066;BME280;22981;43.080;25.550;2023-06-24T02:42:26;99449.95;;;20.95;70.61
37066;BME280;22981;43.080;25.550;2023-06-24T02:44:54;99454.64;;;20.90;70.77
37066;BME280;22981;43.080;25.550;2023-06-24T02:47:22;99455.47;;;20.88;70.80
37066;BME280;22981;43.080;25.550;2023-06-24T02:49:50;99458.44;;;20.89;70.78
37066;BME280;22981;43.080;25.550;2023-06-24T02:52:18;99459.84;;;20.86;70.88
37066;BME280;22981;43.080;25.550;2023-06-24T02:54:46;99462.82;;;20.87;71.02
37066;BME280;22981;43.080;25.550;2023-06-24T02:57:14;99466.11;;;20.84;71.09
37066;BME280;22981;43.080;25.550;2023-06-24T02:59:42;99468.08;;;20.79;71.17
37066;BME280;22981;43.080;25.550;2023-06-24T03:02:09;99461.35;;;20.68;71.46
37066;BME280;22981;43.080;25.550;2023-06-24T03:04:37;99464.92;;;20.66;71.67
37066;BME280;22981;43.080;25.550;2023-06-24T03:07:06;99467.13;;;20.64;71.77
37066;BME280;22981;43.080;25.550;2023-06-24T03:09:36;99464.42;;;20.62;71.82
37066;BME280;22981;43.080;25.550;2023-06-24T03:12:05;99473.69;;;20.61;71.87
37066;BME280;22981;43.080;25.550;2023-06-24T03:14:33;99473.39;;;20.62;71.92
37066;BME280;22981;43.080;25.550;2023-06-24T03:17:01;99478.82;;;20.65;71.96
37066;BME280;22981;43.080;25.550;2023-06-24T03:19:30;99478.52;;;20.66;72.07
37066;BME280;22981;43.080;25.550;2023-06-24T03:21:58;99481.55;;;20.62;72.00
37066;BME280;22981;43.080;25.550;2023-06-24T03:24:25;99478.64;;;20.51;72.07
37066;BME280;22981;43.080;25.550;2023-06-24T03:26:53;99489.07;;;20.36;72.55
37066;BME280;22981;43.080;25.550;2023-06-24T03:29:22;99488.52;;;20.37;72.80
37066;BME280;22981;43.080;25.550;2023-06-24T03:31:50;99483.63;;;20.39;72.78
37066;BME280;22981;43.080;25.550;2023-06-24T03:34:18;99487.67;;;20.41;72.74
37066;BME280;22981;43.080;25.550;2023-06-24T03:36:45;99481.72;;;20.39;72.83
37066;BME280;22981;43.080;25.550;2023-06-24T03:39:13;99480.07;;;20.38;72.91
37066;BME280;22981;43.080;25.550;2023-06-24T03:41:40;99485.24;;;20.40;73.02
37066;BME280;22981;43.080;25.550;2023-06-24T03:44:08;99488.78;;;20.38;73.10
37066;BME280;22981;43.080;25.550;2023-06-24T03:46:35;99492.86;;;20.38;73.32
37066;BME280;22981;43.080;25.550;2023-06-24T03:49:03;99492.30;;;20.38;73.41
37066;BME280;22981;43.080;25.550;2023-06-24T03:51:31;99501.05;;;20.33;73.63
37066;BME280;22981;43.080;25.550;2023-06-24T03:53:59;99506.23;;;20.32;73.75
37066;BME280;22981;43.080;25.550;2023-06-24T03:56:26;99508.14;;;20.31;73.74
37066;BME280;22981;43.080;25.550;2023-06-24T03:58:54;99504.88;;;20.29;73.78
37066;BME280;22981;43.080;25.550;2023-06-24T04:01:21;99498.63;;;20.31;73.82
37066;BME280;22981;43.080;25.550;2023-06-24T04:03:49;99505.94;;;20.36;73.72
37066;BME280;22981;43.080;25.550;2023-06-24T04:06:16;99501.82;;;20.38;73.75
37066;BME280;22981;43.080;25.550;2023-06-24T04:08:44;99509.67;;;20.45;73.67
37066;BME280;22981;43.080;25.550;2023-06-24T04:11:13;99510.45;;;20.56;73.45
37066;BME280;22981;43.080;25.550;2023-06-24T04:13:41;99511.77;;;20.61;73.32
37066;BME280;22981;43.080;25.550;2023-06-24T04:16:08;99509.00;;;20.66;73.37
37066;BME280;22981;43.080;25.550;2023-06-24T04:18:36;99508.15;;;20.68;73.29
37066;BME280;22981;43.080;25.550;2023-06-24T04:21:05;99508.44;;;20.69;73.26
37066;BME280;22981;43.080;25.550;2023-06-24T04:23:33;99510.85;;;20.73;73.11
37066;BME280;22981;43.080;25.550;2023-06-24T04:26:01;99505.36;;;20.78;73.09
37066;BME280;22981;43.080;25.550;2023-06-24T04:28:28;99504.74;;;20.86;73.08
37066;BME280;22981;43.080;25.550;2023-06-24T04:30:56;99511.44;;;20.96;73.03
37066;BME280;22981;43.080;25.550;2023-06-24T04:33:24;99517.36;;;21.04;72.94
37066;BME280;22981;43.080;25.550;2023-06-24T04:35:51;99526.52;;;21.13;72.79
37066;BME280;22981;43.080;25.550;2023-06-24T04:38:19;99524.53;;;21.21;72.56
37066;BME280;22981;43.080;25.550;2023-06-24T04:40:46;99517.12;;;21.26;72.21
37066;BME280;22981;43.080;25.550;2023-06-24T04:43:14;99523.36;;;21.30;72.23
37066;BME280;22981;43.080;25.550;2023-06-24T04:45:41;99522.27;;;21.33;72.30
37066;BME280;22981;43.080;25.550;2023-06-24T04:48:09;99518.39;;;21.37;72.44
37066;BME280;22981;43.080;25.550;2023-06-24T04:50:37;99525.92;;;21.45;72.38
37066;BME280;22981;43.080;25.550;2023-06-24T04:53:05;99517.20;;;21.45;72.19
37066;BME280;22981;43.080;25.550;2023-06-24T04:55:32;99514.71;;;21.49;72.14
37066;BME280;22981;43.080;25.550;2023-06-24T04:58:00;99509.75;;;21.54;72.08
37066;BME280;22981;43.080;25.550;2023-06-24T05:00:27;99509.41;;;21.60;72.18
37066;BME280;22981;43.080;25.550;2023-06-24T05:02:55;99512.00;;;21.70;72.37
37066;BME280;22981;43.080;25.550;2023-06-24T05:05:22;99511.10;;;21.78;72.54
37066;BME280;22981;43.080;25.550;2023-06-24T05:07:50;99517.82;;;21.85;72.46
37066;BME280;22981;43.080;25.550;2023-06-24T05:10:17;99515.27;;;21.91;72.44
37066;BME280;22981;43.080;25.550;2023-06-24T05:12:45;99515.95;;;22.02;72.39
37066;BME280;22981;43.080;25.550;2023-06-24T05:15:13;99519.09;;;22.14;72.21
37066;BME280;22981;43.080;25.550;2023-06-24T05:17:40;99514.28;;;22.25;72.12
37066;BME280;22981;43.080;25.550;2023-06-24T05:20:08;99520.91;;;22.38;71.92
37066;BME280;22981;43.080;25.550;2023-06-24T05:22:36;99513.89;;;22.50;71.67
37066;BME280;22981;43.080;25.550;2023-06-24T05:25:04;99520.48;;;22.66;71.44
37066;BME280;22981;43.080;25.550;2023-06-24T05:27:31;99512.33;;;22.80;71.18
37066;BME280;22981;43.080;25.550;2023-06-24T05:29:59;99508.81;;;22.95;70.86
37066;BME280;22981;43.080;25.550;2023-06-24T05:32:26;99502.50;;;23.11;70.85
37066;BME280;22981;43.080;25.550;2023-06-24T05:34:54;99503.28;;;23.28;70.72
37066;BME280;22981;43.080;25.550;2023-06-24T05:37:21;99505.97;;;23.44;69.42
37066;BME280;22981;43.080;25.550;2023-06-24T05:39:49;99495.23;;;23.62;67.56
37066;BME280;22981;43.080;25.550;2023-06-24T05:42:16;99493.03;;;23.78;66.51
37066;BME280;22981;43.080;25.550;2023-06-24T05:44:44;99493.80;;;23.92;66.37
37066;BME280;22981;43.080;25.550;2023-06-24T05:47:11;99491.09;;;24.03;66.13
37066;BME280;22981;43.080;25.550;2023-06-24T05:49:39;99491.73;;;24.11;65.34
37066;BME280;22981;43.080;25.550;2023-06-24T05:52:07;99489.80;;;24.23;64.88
37066;BME280;22981;43.080;25.550;2023-06-24T05:54:34;99482.47;;;24.32;64.53
37066;BME280;22981;43.080;25.550;2023-06-24T05:57:02;99482.32;;;24.40;64.35
37066;BME280;22981;43.080;25.550;2023-06-24T05:59:32;99485.92;;;24.49;63.99
37066;BME280;22981;43.080;25.550;2023-06-24T06:01:59;99481.88;;;24.58;63.26
37066;BME280;22981;43.080;25.550;2023-06-24T06:04:30;99481.45;;;24.64;62.62
37066;BME280;22981;43.080;25.550;2023-06-24T06:06:58;99481.55;;;24.70;62.11
37066;BME280;22981;43.080;25.550;2023-06-24T06:09:26;99480.00;;;24.78;61.81
37066;BME280;22981;43.080;25.550;2023-06-24T06:11:53;99480.66;;;24.84;61.27
37066;BME280;22981;43.080;25.550;2023-06-24T06:14:21;99481.59;;;24.90;60.17
37066;BME280;22981;43.080;25.550;2023-06-24T06:16:48;99475.98;;;24.95;59.89
37066;BME280;22981;43.080;25.550;2023-06-24T06:19:16;99477.20;;;25.01;60.25
37066;BME280;22981;43.080;25.550;2023-06-24T06:21:44;99481.44;;;25.07;60.20
37066;BME280;22981;43.080;25.550;2023-06-24T06:24:12;99482.70;;;25.12;59.94
37066;BME280;22981;43.080;25.550;2023-06-24T06:26:43;99490.15;;;25.20;59.78
37066;BME280;22981;43.080;25.550;2023-06-24T06:29:11;99486.94;;;25.27;59.52
37066;BME280;22981;43.080;25.550;2023-06-24T06:31:39;99490.03;;;25.34;60.08
37066;BME280;22981;43.080;25.550;2023-06-24T06:34:07;99483.59;;;25.38;59.75
37066;BME280;22981;43.080;25.550;2023-06-24T06:36:35;99487.02;;;25.44;59.13
37066;BME280;22981;43.080;25.550;2023-06-24T06:39:02;99490.42;;;25.50;58.41
37066;BME280;22981;43.080;25.550;2023-06-24T06:41:30;99495.75;;;25.55;58.15
37066;BME280;22981;43.080;25.550;2023-06-24T06:43:57;99491.81;;;25.58;57.68
37066;BME280;22981;43.080;25.550;2023-06-24T06:46:25;99500.12;;;25.64;57.77
37066;BME280;22981;43.080;25.550;2023-06-24T06:48:52;99501.66;;;25.68;57.45
37066;BME280;22981;43.080;25.550;2023-06-24T06:51:20;99497.96;;;25.72;57.63
37066;BME280;22981;43.080;25.550;2023-06-24T06:53:48;99503.32;;;25.78;57.31
37066;BME280;22981;43.080;25.550;2023-06-24T06:56:21;99495.20;;;25.84;56.98
37066;BME280;22981;43.080;25.550;2023-06-24T06:58:47;99492.30;;;25.89;56.96
37066;BME280;22981;43.080;25.550;2023-06-24T07:01:15;99489.50;;;25.91;57.22
37066;BME280;22981;43.080;25.550;2023-06-24T07:03:42;99486.59;;;25.96;57.46
37066;BME280;22981;43.080;25.550;2023-06-24T07:06:10;99482.25;;;26.04;57.27
37066;BME280;22981;43.080;25.550;2023-06-24T07:08:37;99477.33;;;26.12;57.34
37066;BME280;22981;43.080;25.550;2023-06-24T07:11:05;99481.91;;;26.23;57.50
37066;BME280;22981;43.080;25.550;2023-06-24T07:13:32;99486.66;;;26.29;57.03
37066;BME280;22981;43.080;25.550;2023-06-24T07:16:00;99483.68;;;26.36;56.85
37066;BME280;22981;43.080;25.550;2023-06-24T07:18:28;99479.73;;;26.40;57.00
37066;BME280;22981;43.080;25.550;2023-06-24T07:20:59;99481.92;;;26.49;56.85
37066;BME280;22981;43.080;25.550;2023-06-24T07:23:26;99477.97;;;26.53;57.34
37066;BME280;22981;43.080;25.550;2023-06-24T07:25:53;99475.20;;;26.61;57.39
37066;BME280;22981;43.080;25.550;2023-06-24T07:28:21;99483.42;;;26.70;57.60
37066;BME280;22981;43.080;25.550;2023-06-24T07:30:48;99479.62;;;26.77;56.86
37066;BME280;22981;43.080;25.550;2023-06-24T07:33:16;99479.91;;;26.84;56.39
37066;BME280;22981;43.080;25.550;2023-06-24T07:35:43;99475.94;;;26.88;56.63
37066;BME280;22981;43.080;25.550;2023-06-24T07:38:11;99477.86;;;26.96;56.04
37066;BME280;22981;43.080;25.550;2023-06-24T07:40:39;99476.53;;;27.02;55.50
37066;BME280;22981;43.080;25.550;2023-06-24T07:43:06;99468.13;;;27.07;55.35
37066;BME280;22981;43.080;25.550;2023-06-24T07:45:34;99471.19;;;27.14;54.88
37066;BME280;22981;43.080;25.550;2023-06-24T07:48:01;99473.44;;;27.21;54.84
37066;BME280;22981;43.080;25.550;2023-06-24T07:50:29;99473.73;;;27.28;54.78
37066;BME280;22981;43.080;25.550;2023-06-24T07:52:57;99467.36;;;27.36;54.17
37066;BME280;22981;43.080;25.550;2023-06-24T07:55:25;99469.03;;;27.43;54.14
37066;BME280;22981;43.080;25.550;2023-06-24T07:57:52;99464.86;;;27.52;53.69
37066;BME280;22981;43.080;25.550;2023-06-24T08:00:20;99466.18;;;27.61;53.50
37066;BME280;22981;43.080;25.550;2023-06-24T08:02:47;99479.42;;;27.67;52.99
37066;BME280;22981;43.080;25.550;2023-06-24T08:05:15;99471.23;;;27.74;52.53
37066;BME280;22981;43.080;25.550;2023-06-24T08:07:44;99472.55;;;27.82;52.34
37066;BME280;22981;43.080;25.550;2023-06-24T08:10:12;99467.55;;;27.90;52.33
37066;BME280;22981;43.080;25.550;2023-06-24T08:12:39;99465.31;;;27.99;52.08
37066;BME280;22981;43.080;25.550;2023-06-24T08:15:07;99466.96;;;28.06;51.88
37066;BME280;22981;43.080;25.550;2023-06-24T08:17:35;99464.80;;;28.11;51.58
37066;BME280;22981;43.080;25.550;2023-06-24T08:20:03;99472.28;;;28.17;51.96
37066;BME280;22981;43.080;25.550;2023-06-24T08:22:31;99466.95;;;28.27;51.75
37066;BME280;22981;43.080;25.550;2023-06-24T08:24:59;99464.38;;;28.36;51.46
37066;BME280;22981;43.080;25.550;2023-06-24T08:27:26;99460.73;;;28.44;51.34
37066;BME280;22981;43.080;25.550;2023-06-24T08:29:54;99463.73;;;28.52;51.08
37066;BME280;22981;43.080;25.550;2023-06-24T08:32:21;99457.20;;;28.56;50.51
37066;BME280;22981;43.080;25.550;2023-06-24T08:34:49;99455.95;;;28.60;50.66
37066;BME280;22981;43.080;25.550;2023-06-24T08:37:16;99455.77;;;28.71;50.56
37066;BME280;22981;43.080;25.550;2023-06-24T08:39:44;99448.42;;;28.81;49.35
37066;BME280;22981;43.080;25.550;2023-06-24T08:42:12;99448.10;;;28.89;49.19
37066;BME280;22981;43.080;25.550;2023-06-24T08:44:39;99448.25;;;28.99;48.97
37066;BME280;22981;43.080;25.550;2023-06-24T08:47:07;99451.48;;;29.07;48.06
37066;BME280;22981;43.080;25.550;2023-06-24T08:49:38;99443.55;;;29.11;48.21
37066;BME280;22981;43.080;25.550;2023-06-24T08:55:04;99454.27;;;29.25;48.40
37066;BME280;22981;43.080;25.550;2023-06-24T08:57:33;99445.05;;;29.33;47.81
37066;BME280;22981;43.080;25.550;2023-06-24T09:00:01;99455.05;;;29.44;48.06
37066;BME280;22981;43.080;25.550;2023-06-24T09:02:30;99454.70;;;29.52;46.97
37066;BME280;22981;43.080;25.550;2023-06-24T09:04:59;99462.27;;;29.55;45.98
37066;BME280;22981;43.080;25.550;2023-06-24T09:07:27;99456.89;;;29.58;46.11
37066;BME280;22981;43.080;25.550;2023-06-24T09:09:55;99450.59;;;29.64;45.68
37066;BME280;22981;43.080;25.550;2023-06-24T09:12:24;99452.74;;;29.71;44.69
37066;BME280;22981;43.080;25.550;2023-06-24T09:14:53;99452.39;;;29.78;45.40
37066;BME280;22981;43.080;25.550;2023-06-24T09:17:20;99451.34;;;29.83;45.31
37066;BME280;22981;43.080;25.550;2023-06-24T09:19:51;99450.08;;;29.86;44.00
37066;BME280;22981;43.080;25.550;2023-06-24T09:22:19;99441.77;;;29.92;43.21
37066;BME280;22981;43.080;25.550;2023-06-24T09:24:48;99443.14;;;29.99;43.12
37066;BME280;22981;43.080;25.550;2023-06-24T09:27:17;99438.64;;;30.00;43.13
37066;BME280;22981;43.080;25.550;2023-06-24T09:29:46;99438.86;;;30.01;43.11
37066;BME280;22981;43.080;25.550;2023-06-24T09:32:14;99441.95;;;30.06;43.29
37066;BME280;22981;43.080;25.550;2023-06-24T09:34:43;99450.37;;;30.15;42.82
37066;BME280;22981;43.080;25.550;2023-06-24T09:37:12;99445.61;;;30.22;42.10
37066;BME280;22981;43.080;25.550;2023-06-24T09:39:40;99446.30;;;30.25;41.39
37066;BME280;22981;43.080;25.550;2023-06-24T09:42:08;99437.43;;;30.26;41.47
37066;BME280;22981;43.080;25.550;2023-06-24T09:44:37;99443.86;;;30.30;41.97
37066;BME280;22981;43.080;25.550;2023-06-24T09:47:05;99438.88;;;30.35;42.33
37066;BME280;22981;43.080;25.550;2023-06-24T09:49:32;99441.05;;;30.42;42.38
37066;BME280;22981;43.080;25.550;2023-06-24T09:52:00;99432.39;;;30.43;42.86
37066;BME280;22981;43.080;25.550;2023-06-24T09:54:29;99437.66;;;30.49;43.26
37066;BME280;22981;43.080;25.550;2023-06-24T09:56:59;99426.80;;;30.56;43.69
37066;BME280;22981;43.080;25.550;2023-06-24T09:59:28;99424.82;;;30.62;43.13
37066;BME280;22981;43.080;25.550;2023-06-24T10:01:57;99419.05;;;30.61;43.24
37066;BME280;22981;43.080;25.550;2023-06-24T10:04:27;99414.30;;;30.68;44.62
37066;BME280;22981;43.080;25.550;2023-06-24T10:06:55;99405.98;;;30.74;44.39
37066;BME280;22981;43.080;25.550;2023-06-24T10:09:23;99411.03;;;30.78;44.91
37066;BME280;22981;43.080;25.550;2023-06-24T10:11:51;99415.15;;;30.84;44.99
37066;BME280;22981;43.080;25.550;2023-06-24T10:14:18;99407.44;;;30.84;43.92
37066;BME280;22981;43.080;25.550;2023-06-24T10:16:46;99400.53;;;30.84;44.68
37066;BME280;22981;43.080;25.550;2023-06-24T10:19:21;99395.31;;;30.88;45.06
37066;BME280;22981;43.080;25.550;2023-06-24T10:21:51;99385.58;;;30.95;44.17
37066;BME280;22981;43.080;25.550;2023-06-24T10:24:36;99394.82;;;30.92;42.97
37066;BME280;22981;43.080;25.550;2023-06-24T10:27:13;99386.87;;;30.91;42.99
37066;BME280;22981;43.080;25.550;2023-06-24T10:29:36;99378.08;;;30.95;43.45
37066;BME280;22981;43.080;25.550;2023-06-24T10:32:08;99389.69;;;31.01;44.00
37066;BME280;22981;43.080;25.550;2023-06-24T10:34:41;99376.52;;;31.04;43.42
37066;BME280;22981;43.080;25.550;2023-06-24T10:37:11;99375.59;;;31.06;43.57
37066;BME280;22981;43.080;25.550;2023-06-24T10:42:29;99385.11;;;31.08;42.84
37066;BME280;22981;43.080;25.550;2023-06-24T10:47:47;99380.08;;;31.04;42.75
37066;BME280;22981;43.080;25.550;2023-06-24T10:50:18;99381.12;;;31.06;42.69
37066;BME280;22981;43.080;25.550;2023-06-24T10:52:47;99379.00;;;31.09;42.92
37066;BME280;22981;43.080;25.550;2023-06-24T10:55:18;99382.44;;;31.12;42.21
37066;BME280;22981;43.080;25.550;2023-06-24T10:57:46;99391.68;;;31.10;42.13
37066;BME280;22981;43.080;25.550;2023-06-24T11:00:14;99383.14;;;31.09;41.57
37066;BME280;22981;43.080;25.550;2023-06-24T11:02:42;99379.45;;;31.11;41.50
37066;BME280;22981;43.080;25.550;2023-06-24T11:05:11;99378.28;;;31.12;41.79
37066;BME280;22981;43.080;25.550;2023-06-24T11:07:39;99379.30;;;31.13;41.82
37066;BME280;22981;43.080;25.550;2023-06-24T11:10:12;99378.46;;;31.19;42.04
37066;BME280;22981;43.080;25.550;2023-06-24T11:12:40;99369.00;;;31.20;42.04
37066;BME280;22981;43.080;25.550;2023-06-24T11:15:10;99366.69;;;31.22;41.87
37066;BME280;22981;43.080;25.550;2023-06-24T11:17:38;99365.02;;;31.27;41.65
37066;BME280;22981;43.080;25.550;2023-06-24T11:20:11;99365.27;;;31.28;41.80
37066;BME280;22981;43.080;25.550;2023-06-24T11:22:41;99364.39;;;31.34;41.90
37066;BME280;22981;43.080;25.550;2023-06-24T11:25:19;99371.48;;;31.41;41.12
37066;BME280;22981;43.080;25.550;2023-06-24T11:27:52;99356.84;;;31.40;40.40
37066;BME280;22981;43.080;25.550;2023-06-24T11:30:18;99363.31;;;31.38;40.97
37066;BME280;22981;43.080;25.550;2023-06-24T11:32:46;99364.35;;;31.40;40.64
37066;BME280;22981;43.080;25.550;2023-06-24T11:35:15;99363.09;;;31.37;40.02
37066;BME280;22981;43.080;25.550;2023-06-24T11:37:47;99365.15;;;31.40;39.72
37066;BME280;22981;43.080;25.550;2023-06-24T11:40:13;99357.06;;;31.41;39.94
37066;BME280;22981;43.080;25.550;2023-06-24T11:42:43;99348.27;;;31.46;39.90
37066;BME280;22981;43.080;25.550;2023-06-24T11:45:12;99337.95;;;31.52;40.47
37066;BME280;22981;43.080;25.550;2023-06-24T11:47:42;99329.94;;;31.57;40.22
37066;BME280;22981;43.080;25.550;2023-06-24T11:50:09;99330.28;;;31.55;38.89
37066;BME280;22981;43.080;25.550;2023-06-24T11:52:47;99327.59;;;31.49;38.59
37066;BME280;22981;43.080;25.550;2023-06-24T11:55:22;99323.06;;;31.51;38.42
37066;BME280;22981;43.080;25.550;2023-06-24T11:58:01;99319.50;;;31.50;38.03
37066;BME280;22981;43.080;25.550;2023-06-24T12:00:39;99311.79;;;31.50;37.27
37066;BME280;22981;43.080;25.550;2023-06-24T12:03:11;99317.11;;;31.49;36.87
37066;BME280;22981;43.080;25.550;2023-06-24T12:05:40;99311.12;;;31.47;36.40
37066;BME280;22981;43.080;25.550;2023-06-24T12:08:11;99312.00;;;31.51;37.09
37066;BME280;22981;43.080;25.550;2023-06-24T12:10:40;99302.47;;;31.58;37.16
37066;BME280;22981;43.080;25.550;2023-06-24T12:13:08;99291.83;;;31.60;37.11
37066;BME280;22981;43.080;25.550;2023-06-24T12:15:36;99299.55;;;31.60;37.16
37066;BME280;22981;43.080;25.550;2023-06-24T12:18:04;99299.03;;;31.64;36.18
37066;BME280;22981;43.080;25.550;2023-06-24T12:20:32;99298.48;;;31.65;36.76
37066;BME280;22981;43.080;25.550;2023-06-24T12:23:01;99296.93;;;31.67;36.38
37066;BME280;22981;43.080;25.550;2023-06-24T12:25:30;99297.73;;;31.68;37.13
37066;BME280;22981;43.080;25.550;2023-06-24T12:27:57;99297.73;;;31.68;36.34
37066;BME280;22981;43.080;25.550;2023-06-24T12:30:27;99296.20;;;31.71;36.81
37066;BME280;22981;43.080;25.550;2023-06-24T12:32:54;99293.66;;;31.72;36.32
37066;BME280;22981;43.080;25.550;2023-06-24T12:35:22;99289.71;;;31.73;36.59
37066;BME280;22981;43.080;25.550;2023-06-24T12:37:51;99284.97;;;31.73;36.64
37066;BME280;22981;43.080;25.550;2023-06-24T12:40:19;99289.12;;;31.73;35.97
37066;BME280;22981;43.080;25.550;2023-06-24T12:42:47;99284.77;;;31.72;36.04
37066;BME280;22981;43.080;25.550;2023-06-24T12:45:14;99294.15;;;31.77;36.29
37066;BME280;22981;43.080;25.550;2023-06-24T12:47:42;99294.60;;;31.79;36.71
37066;BME280;22981;43.080;25.550;2023-06-24T12:50:09;99284.98;;;31.83;36.49
37066;BME280;22981;43.080;25.550;2023-06-24T12:52:37;99293.29;;;31.83;36.73
37066;BME280;22981;43.080;25.550;2023-06-24T12:55:06;99285.81;;;31.83;36.73
37066;BME280;22981;43.080;25.550;2023-06-24T12:57:34;99290.52;;;31.83;35.96
37066;BME280;22981;43.080;25.550;2023-06-24T13:00:02;99289.48;;;31.81;35.92
37066;BME280;22981;43.080;25.550;2023-06-24T13:02:31;99289.06;;;31.79;36.18
37066;BME280;22981;43.080;25.550;2023-06-24T13:04:59;99294.60;;;31.79;36.32
37066;BME280;22981;43.080;25.550;2023-06-24T13:07:26;99282.87;;;31.76;35.69
37066;BME280;22981;43.080;25.550;2023-06-24T13:09:54;99285.56;;;31.73;35.33
37066;BME280;22981;43.080;25.550;2023-06-24T13:12:21;99276.84;;;31.71;35.63
37066;BME280;22981;43.080;25.550;2023-06-24T13:14:49;99270.34;;;31.73;36.02
37066;BME280;22981;43.080;25.550;2023-06-24T13:17:16;99276.91;;;31.74;35.90